createdAt,value
2018-01-07T00:00:45.784Z,15.33
2018-01-07T00:03:11.996Z,15.34
2018-01-07T00:05:38.228Z,15.37
2018-01-07T00:08:04.442Z,15.36
2018-01-07T00:10:30.993Z,15.35
2018-01-07T00:12:57.256Z,15.31
2018-01-07T00:15:23.457Z,15.32
2018-01-07T00:17:49.645Z,15.32
2018-01-07T00:20:15.904Z,15.33
2018-01-07T00:22:42.122Z,15.33
2018-01-07T00:25:08.353Z,15.34
2018-01-07T00:27:34.617Z,15.33
2018-01-07T00:30:01.092Z,15.33
2018-01-07T00:32:27.326Z,15.31
2018-01-07T00:34:53.561Z,15.31
2018-01-07T00:37:19.744Z,15.31
2018-01-07T00:39:45.921Z,15.30
2018-01-07T00:42:12.192Z,15.30
2018-01-07T00:44:38.697Z,15.30
2018-01-07T00:47:10.858Z,15.31
2018-01-07T00:49:37.144Z,15.31
2018-01-07T00:52:03.628Z,15.29
2018-01-07T00:54:29.835Z,15.28
2018-01-07T00:56:56.105Z,15.29
2018-01-07T00:59:22.309Z,15.28
2018-01-07T01:01:48.847Z,15.28
2018-01-07T01:04:15.382Z,15.28
2018-01-07T01:06:41.913Z,15.28
2018-01-07T01:09:08.320Z,15.28
2018-01-07T01:11:34.557Z,15.26
2018-01-07T01:14:00.769Z,15.24
2018-01-07T01:16:27.006Z,15.24
2018-01-07T01:18:53.431Z,15.26
2018-01-07T01:21:19.660Z,15.26
2018-01-07T01:23:45.871Z,15.25
2018-01-07T01:26:12.143Z,15.27
2018-01-07T01:28:38.373Z,15.27
2018-01-07T01:31:04.594Z,15.30
2018-01-07T01:33:30.842Z,15.28
2018-01-07T01:35:57.263Z,15.28
2018-01-07T01:38:23.470Z,15.25
2018-01-07T01:40:49.758Z,15.27
2018-01-07T01:43:16.048Z,15.29
2018-01-07T01:45:42.489Z,15.27
2018-01-07T01:48:08.716Z,15.27
2018-01-07T01:50:34.897Z,15.28
2018-01-07T01:53:01.085Z,15.28
2018-01-07T01:55:27.316Z,15.25
2018-01-07T01:57:53.516Z,15.25
2018-01-07T02:00:19.738Z,15.26
2018-01-07T02:02:46.259Z,15.26
2018-01-07T02:05:12.499Z,15.24
2018-01-07T02:07:38.726Z,15.24
2018-01-07T02:10:05.051Z,15.22
2018-01-07T02:12:31.294Z,15.20
2018-01-07T02:14:57.586Z,15.20
2018-01-07T02:17:23.839Z,15.22
2018-01-07T02:19:50.086Z,15.23
2018-01-07T02:22:16.325Z,15.20
2018-01-07T02:24:42.586Z,15.18
2018-01-07T02:27:09.088Z,15.19
2018-01-07T02:29:35.724Z,15.18
2018-01-07T02:32:01.987Z,15.17
2018-01-07T02:34:28.224Z,15.18
2018-01-07T02:36:54.421Z,15.19
2018-01-07T02:39:20.706Z,15.19
2018-01-07T02:41:46.951Z,15.19
2018-01-07T02:44:13.392Z,15.18
2018-01-07T02:46:39.654Z,15.17
2018-01-07T02:49:05.834Z,15.16
2018-01-07T02:51:32.019Z,15.19
2018-01-07T02:53:58.266Z,15.18
2018-01-07T02:56:24.736Z,15.16
2018-01-07T02:58:50.906Z,15.14
2018-01-07T03:01:17.136Z,15.13
2018-01-07T03:03:43.311Z,15.13
2018-01-07T03:06:09.534Z,15.14
2018-01-07T03:08:35.771Z,15.14
2018-01-07T03:11:01.983Z,15.15
2018-01-07T03:13:28.208Z,15.17
2018-01-07T03:15:54.502Z,15.17
2018-01-07T03:18:20.727Z,15.18
2018-01-07T03:20:47.058Z,15.18
2018-01-07T03:23:13.342Z,15.19
2018-01-07T03:25:39.556Z,15.17
2018-01-07T03:28:05.765Z,15.17
2018-01-07T03:30:32.051Z,15.18
2018-01-07T03:32:58.240Z,15.19
2018-01-07T03:35:24.461Z,15.19
2018-01-07T03:37:50.701Z,15.19
2018-01-07T03:40:16.913Z,15.18
2018-01-07T03:42:43.138Z,15.17
2018-01-07T03:45:09.429Z,15.15
2018-01-07T03:47:35.649Z,15.17
2018-01-07T03:50:01.831Z,15.16
2018-01-07T03:52:28.082Z,15.13
2018-01-07T03:54:54.305Z,15.16
2018-01-07T03:57:20.489Z,15.14
2018-01-07T03:59:46.725Z,15.13
2018-01-07T04:02:14.133Z,15.13
2018-01-07T04:04:40.357Z,15.14
2018-01-07T04:07:06.644Z,15.15
2018-01-07T04:09:32.830Z,15.17
2018-01-07T04:11:59.037Z,15.17
2018-01-07T04:14:25.289Z,15.14
2018-01-07T04:16:51.604Z,15.14
2018-01-07T04:19:17.826Z,15.13
2018-01-07T04:21:44.194Z,15.11
2018-01-07T04:24:10.438Z,15.09
2018-01-07T04:26:36.615Z,15.09
2018-01-07T04:29:03.120Z,15.08
2018-01-07T04:31:29.333Z,15.08
2018-01-07T04:33:55.814Z,15.09
2018-01-07T04:36:22.104Z,15.07
2018-01-07T04:38:48.342Z,15.10
2018-01-07T04:41:14.910Z,15.11
2018-01-07T04:43:41.194Z,15.10
2018-01-07T04:46:07.419Z,15.10
2018-01-07T04:48:33.598Z,15.10
2018-01-07T04:51:00.232Z,15.07
2018-01-07T04:53:26.453Z,15.06
2018-01-07T04:55:52.683Z,15.04
2018-01-07T04:58:18.969Z,15.03
2018-01-07T05:00:45.443Z,15.03
2018-01-07T05:03:11.661Z,15.05
2018-01-07T05:05:38.214Z,15.05
2018-01-07T05:08:04.443Z,15.07
2018-01-07T05:10:30.649Z,15.05
2018-01-07T05:12:57.204Z,15.05
2018-01-07T05:15:23.412Z,15.07
2018-01-07T05:17:49.597Z,15.05
2018-01-07T05:20:15.840Z,15.02
2018-01-07T05:22:42.054Z,15.03
2018-01-07T05:25:08.313Z,15.02
2018-01-07T05:27:34.874Z,15.01
2018-01-07T05:30:01.098Z,15.01
2018-01-07T05:32:27.265Z,15.03
2018-01-07T05:34:53.774Z,15.01
2018-01-07T05:37:19.996Z,15.03
2018-01-07T05:39:46.229Z,15.07
2018-01-07T05:42:12.510Z,15.10
2018-01-07T05:44:38.738Z,15.12
2018-01-07T05:47:04.922Z,15.11
2018-01-07T05:49:31.441Z,15.14
2018-01-07T05:51:57.632Z,15.15
2018-01-07T05:54:23.820Z,15.13
2018-01-07T05:56:50.069Z,15.09
2018-01-07T05:59:16.297Z,15.07
2018-01-07T06:01:42.524Z,15.05
2018-01-07T06:04:09.126Z,15.04
2018-01-07T06:06:35.367Z,15.05
2018-01-07T06:09:01.536Z,15.05
2018-01-07T06:11:27.788Z,15.05
2018-01-07T06:13:54.237Z,15.05
2018-01-07T06:16:20.410Z,15.05
2018-01-07T06:18:46.690Z,15.06
2018-01-07T06:21:12.872Z,15.07
2018-01-07T06:23:39.157Z,15.07
2018-01-07T06:26:05.397Z,15.04
2018-01-07T06:28:31.572Z,15.05
2018-01-07T06:30:57.794Z,15.06
2018-01-07T06:33:24.082Z,15.09
2018-01-07T06:35:50.260Z,15.09
2018-01-07T06:38:16.474Z,15.08
2018-01-07T06:40:42.703Z,15.08
2018-01-07T06:43:08.896Z,15.08
2018-01-07T06:45:35.087Z,15.08
2018-01-07T06:48:01.637Z,15.08
2018-01-07T06:50:27.807Z,15.06
2018-01-07T06:52:54.002Z,15.05
2018-01-07T06:55:20.278Z,15.04
2018-01-07T06:57:46.482Z,15.07
2018-01-07T07:00:12.652Z,15.06
2018-01-07T07:02:38.915Z,15.06
2018-01-07T07:05:05.442Z,15.03
2018-01-07T07:07:31.646Z,15.03
2018-01-07T07:09:57.875Z,15.01
2018-01-07T07:12:24.085Z,15.02
2018-01-07T07:14:50.496Z,15.01
2018-01-07T07:17:16.714Z,15.01
2018-01-07T07:19:43.188Z,15.03
2018-01-07T07:22:09.418Z,15.03
2018-01-07T07:24:35.724Z,15.05
2018-01-07T07:27:02.037Z,15.05
2018-01-07T07:29:28.251Z,15.07
2018-01-07T07:31:54.873Z,15.05
2018-01-07T07:34:21.068Z,15.04
2018-01-07T07:36:47.258Z,15.04
2018-01-07T07:39:13.865Z,15.02
2018-01-07T07:41:40.073Z,15.00
2018-01-07T07:44:06.294Z,15.02
2018-01-07T07:46:32.553Z,15.02
2018-01-07T07:48:58.782Z,15.02
2018-01-07T07:51:24.971Z,15.04
2018-01-07T07:53:51.535Z,15.03
2018-01-07T07:56:17.744Z,15.01
2018-01-07T07:58:43.958Z,15.02
2018-01-07T08:01:10.203Z,15.04
2018-01-07T08:03:36.403Z,15.06
2018-01-07T08:06:02.631Z,15.05
2018-01-07T08:08:28.918Z,15.03
2018-01-07T08:10:55.174Z,15.02
2018-01-07T08:13:21.415Z,15.03
2018-01-07T08:15:47.699Z,15.04
2018-01-07T08:18:13.899Z,15.03
2018-01-07T08:20:40.089Z,15.02
2018-01-07T08:23:06.331Z,15.03
2018-01-07T08:25:32.808Z,15.03
2018-01-07T08:27:59.001Z,15.04
2018-01-07T08:30:25.571Z,15.07
2018-01-07T08:32:51.765Z,15.05
2018-01-07T08:35:18.342Z,15.03
2018-01-07T08:37:44.622Z,15.03
2018-01-07T08:40:10.815Z,15.02
2018-01-07T08:42:37.006Z,15.02
2018-01-07T08:45:03.248Z,15.02
2018-01-07T08:47:29.482Z,15.06
2018-01-07T08:49:56.019Z,15.08
2018-01-07T08:52:22.277Z,15.10
2018-01-07T08:54:48.506Z,15.11
2018-01-07T08:57:14.720Z,15.11
2018-01-07T08:59:41.056Z,15.11
2018-01-07T09:02:07.287Z,15.14
2018-01-07T09:04:33.473Z,15.14
2018-01-07T09:06:59.763Z,15.14
2018-01-07T09:09:25.959Z,15.14
2018-01-07T09:11:52.160Z,15.14
2018-01-07T09:14:18.438Z,15.14
2018-01-07T09:16:44.643Z,15.13
2018-01-07T09:19:10.808Z,15.14
2018-01-07T09:21:37.069Z,15.23
2018-01-07T09:24:03.314Z,15.42
2018-01-07T09:26:29.546Z,15.44
2018-01-07T09:28:55.800Z,15.49
2018-01-07T09:31:21.989Z,15.66
2018-01-07T09:33:48.169Z,16.13
2018-01-07T09:36:14.419Z,16.25
2018-01-07T09:38:40.659Z,15.91
2018-01-07T09:41:06.864Z,15.60
2018-01-07T09:43:33.158Z,15.44
2018-01-07T09:45:59.407Z,15.33
2018-01-07T09:48:25.858Z,15.31
2018-01-07T09:50:52.163Z,15.31
2018-01-07T09:53:18.410Z,15.31
2018-01-07T09:55:44.588Z,15.32
2018-01-07T09:58:10.833Z,15.34
2018-01-07T10:00:37.057Z,15.35
2018-01-07T10:03:03.279Z,15.36
2018-01-07T10:05:29.528Z,15.38
2018-01-07T10:07:55.831Z,15.42
2018-01-07T10:10:22.067Z,15.42
2018-01-07T10:12:48.573Z,15.44
2018-01-07T10:15:14.760Z,15.45
2018-01-07T10:17:40.949Z,15.47
2018-01-07T10:20:07.461Z,15.50
2018-01-07T10:22:33.697Z,15.53
2018-01-07T10:25:00.249Z,15.58
2018-01-07T10:27:26.538Z,15.72
2018-01-07T10:29:52.774Z,16.57
2018-01-07T10:32:19.336Z,18.58
2018-01-07T10:34:45.617Z,18.54
2018-01-07T10:37:11.817Z,19.14
2018-01-07T10:39:38.030Z,20.64
2018-01-07T10:42:04.293Z,21.16
2018-01-07T10:44:30.499Z,20.90
2018-01-07T10:46:56.713Z,19.77
2018-01-07T10:49:22.993Z,18.99
2018-01-07T10:51:49.183Z,19.11
2018-01-07T10:54:15.403Z,18.74
2018-01-07T10:56:41.686Z,18.12
2018-01-07T10:59:08.265Z,17.20
2018-01-07T11:01:40.516Z,16.60
2018-01-07T11:04:06.771Z,16.27
2018-01-07T11:06:33.419Z,16.12
2018-01-07T11:08:59.933Z,16.09
2018-01-07T11:11:26.572Z,16.10
2018-01-07T11:13:52.773Z,16.11
2018-01-07T11:16:18.988Z,16.08
2018-01-07T11:18:45.466Z,16.06
2018-01-07T11:21:11.670Z,16.03
2018-01-07T11:23:37.882Z,16.01
2018-01-07T11:26:04.178Z,16.00
2018-01-07T11:28:30.640Z,15.98
2018-01-07T11:30:56.836Z,15.96
2018-01-07T11:33:23.185Z,15.93
2018-01-07T11:35:49.678Z,15.89
2018-01-07T11:38:15.867Z,15.88
2018-01-07T11:40:42.147Z,15.87
2018-01-07T11:43:08.388Z,15.84
2018-01-07T11:45:34.891Z,15.84
2018-01-07T11:48:01.184Z,15.82
2018-01-07T11:50:27.411Z,15.80
2018-01-07T11:52:53.654Z,15.82
2018-01-07T11:55:19.909Z,15.78
2018-01-07T11:57:46.134Z,15.76
2018-01-07T12:00:12.335Z,15.78
2018-01-07T12:02:38.627Z,15.79
2018-01-07T12:05:04.836Z,15.77
2018-01-07T12:07:31.020Z,15.76
2018-01-07T12:09:57.529Z,15.72
2018-01-07T12:12:23.744Z,15.76
2018-01-07T12:14:49.979Z,15.76
2018-01-07T12:17:16.234Z,15.75
2018-01-07T12:19:42.475Z,15.76
2018-01-07T12:22:09.029Z,15.78
2018-01-07T12:24:35.338Z,15.78
2018-01-07T12:27:01.651Z,15.81
2018-01-07T12:29:27.868Z,15.87
2018-01-07T12:31:54.165Z,15.95
2018-01-07T12:34:20.783Z,16.03
2018-01-07T12:36:47.002Z,16.07
2018-01-07T12:39:13.239Z,16.10
2018-01-07T12:41:39.432Z,16.13
2018-01-07T12:44:05.709Z,16.15
2018-01-07T12:46:31.971Z,16.17
2018-01-07T12:48:58.218Z,16.16
2018-01-07T12:51:24.405Z,16.15
2018-01-07T12:53:50.628Z,16.19
2018-01-07T12:56:16.814Z,16.21
2018-01-07T12:58:43.034Z,16.22
2018-01-07T13:01:09.338Z,16.24
2018-01-07T13:03:35.566Z,16.28
2018-01-07T13:06:02.055Z,16.32
2018-01-07T13:08:28.347Z,16.38
2018-01-07T13:10:54.569Z,16.41
2018-01-07T13:13:20.790Z,16.44
2018-01-07T13:15:47.064Z,16.47
2018-01-07T13:18:13.305Z,16.53
2018-01-07T13:20:39.734Z,16.57
2018-01-07T13:23:06.036Z,16.61
2018-01-07T13:25:32.598Z,16.63
2018-01-07T13:27:58.827Z,16.66
2018-01-07T13:30:25.119Z,16.70
2018-01-07T13:32:51.343Z,16.73
2018-01-07T13:35:17.567Z,16.76
2018-01-07T13:37:44.150Z,16.81
2018-01-07T13:40:10.347Z,16.83
2018-01-07T13:42:36.517Z,16.86
2018-01-07T13:45:02.831Z,16.89
2018-01-07T13:47:29.041Z,16.90
2018-01-07T13:49:55.465Z,16.93
2018-01-07T13:52:21.764Z,16.96
2018-01-07T13:54:48.180Z,16.97
2018-01-07T13:57:14.375Z,16.99
2018-01-07T13:59:40.668Z,17.01
2018-01-07T14:02:06.914Z,17.01
2018-01-07T14:04:33.224Z,17.02
2018-01-07T14:06:59.541Z,17.02
2018-01-07T14:09:25.756Z,17.01
2018-01-07T14:11:51.978Z,17.01
2018-01-07T14:14:18.233Z,17.01
2018-01-07T14:16:44.552Z,17.02
2018-01-07T14:19:10.795Z,17.01
2018-01-07T14:21:37.069Z,17.01
2018-01-07T14:24:03.266Z,17.00
2018-01-07T14:26:29.462Z,17.01
2018-01-07T14:28:55.758Z,17.00
2018-01-07T14:31:21.952Z,16.98
2018-01-07T14:33:48.188Z,16.97
2018-01-07T14:36:14.460Z,16.96
2018-01-07T14:38:40.685Z,16.91
2018-01-07T14:41:06.931Z,16.86
2018-01-07T14:43:33.193Z,16.80
2018-01-07T14:45:59.417Z,16.75
2018-01-07T14:48:25.656Z,16.67
2018-01-07T14:50:51.909Z,16.65
2018-01-07T14:53:18.132Z,16.64
2018-01-07T14:55:44.331Z,16.66
2018-01-07T14:58:10.587Z,16.64
2018-01-07T15:00:36.817Z,16.58
2018-01-07T15:03:03.025Z,16.53
2018-01-07T15:05:29.319Z,16.50
2018-01-07T15:10:27.194Z,16.44
2018-01-07T15:12:53.474Z,16.40
2018-01-07T15:15:19.652Z,16.37
2018-01-07T15:17:45.830Z,16.34
2018-01-07T15:20:12.128Z,16.31
2018-01-07T15:22:38.369Z,16.27
2018-01-07T15:25:04.943Z,16.25
2018-01-07T15:27:31.184Z,16.20
2018-01-07T15:29:57.437Z,16.16
2018-01-07T15:32:23.972Z,16.14
2018-01-07T15:34:50.234Z,16.13
2018-01-07T15:37:16.678Z,16.11
2018-01-07T15:39:42.910Z,16.11
2018-01-07T15:42:09.468Z,16.09
2018-01-07T15:44:35.672Z,16.06
2018-01-07T15:47:01.919Z,16.03
2018-01-07T15:49:28.205Z,16.00
2018-01-07T15:51:54.643Z,15.99
2018-01-07T15:54:20.903Z,15.95
2018-01-07T15:56:47.208Z,15.96
2018-01-07T15:59:13.399Z,15.96
2018-01-07T16:01:39.663Z,15.97
2018-01-07T16:04:05.924Z,15.97
2018-01-07T16:06:32.163Z,15.96
2018-01-07T16:08:58.367Z,15.96
2018-01-07T16:11:24.663Z,15.95
2018-01-07T16:13:50.891Z,15.92
2018-01-07T16:16:17.078Z,15.91
2018-01-07T16:18:43.707Z,15.91
2018-01-07T16:21:09.939Z,15.90
2018-01-07T16:23:36.182Z,15.89
2018-01-07T16:26:02.437Z,15.86
2018-01-07T16:28:28.641Z,15.85
2018-01-07T16:30:54.901Z,15.82
2018-01-07T16:33:21.188Z,15.81
2018-01-07T16:35:47.411Z,15.81
2018-01-07T16:38:13.613Z,15.78
2018-01-07T16:40:39.876Z,15.76
2018-01-07T16:43:06.074Z,15.76
2018-01-07T16:45:32.272Z,15.76
2018-01-07T16:47:58.531Z,15.74
2018-01-07T16:50:24.746Z,15.72
2018-01-07T16:52:50.980Z,15.70
2018-01-07T16:55:17.229Z,15.67
2018-01-07T16:57:43.446Z,15.69
2018-01-07T17:00:09.879Z,15.70
2018-01-07T17:02:36.138Z,15.72
2018-01-07T17:05:02.369Z,15.70
2018-01-07T17:07:28.583Z,15.68
2018-01-07T17:09:54.815Z,15.67
2018-01-07T17:12:21.104Z,15.66
2018-01-07T17:14:47.330Z,15.65
2018-01-07T17:17:13.638Z,15.64
2018-01-07T17:19:39.857Z,15.64
2018-01-07T17:22:06.073Z,15.62
2018-01-07T17:24:32.306Z,15.60
2018-01-07T17:26:58.499Z,15.59
2018-01-07T17:29:25.038Z,15.59
2018-01-07T17:31:51.678Z,15.59
2018-01-07T17:34:17.946Z,15.58
2018-01-07T17:36:44.179Z,15.59
2018-01-07T17:39:10.472Z,15.60
2018-01-07T17:41:37.099Z,15.62
2018-01-07T17:44:03.310Z,15.62
2018-01-07T17:46:29.606Z,15.59
2018-01-07T17:48:55.806Z,15.59
2018-01-07T17:51:21.996Z,15.59
2018-01-07T17:53:48.259Z,15.57
2018-01-07T17:56:14.753Z,15.58
2018-01-07T17:58:41.027Z,15.57
2018-01-07T18:01:07.309Z,15.55
2018-01-07T18:03:33.519Z,15.56
2018-01-07T18:05:59.777Z,15.58
2018-01-07T18:08:26.072Z,15.56
2018-01-07T18:10:52.327Z,15.54
2018-01-07T18:13:18.546Z,15.52
2018-01-07T18:15:44.829Z,15.53
2018-01-07T18:18:11.021Z,15.53
2018-01-07T18:20:37.209Z,15.51
2018-01-07T18:23:03.469Z,15.52
2018-01-07T18:25:29.734Z,15.49
2018-01-07T18:27:55.954Z,15.48
2018-01-07T18:30:22.240Z,15.48
2018-01-07T18:32:48.595Z,15.47
2018-01-07T18:35:14.780Z,15.46
2018-01-07T18:37:41.075Z,15.47
2018-01-07T18:40:07.295Z,15.47
2018-01-07T18:42:33.502Z,15.45
2018-01-07T18:44:59.744Z,15.44
2018-01-07T18:47:25.982Z,15.45
2018-01-07T18:49:52.206Z,15.43
2018-01-07T18:52:18.440Z,15.44
2018-01-07T18:54:44.743Z,15.42
2018-01-07T18:57:10.959Z,15.41
2018-01-07T18:59:37.421Z,15.40
2018-01-07T19:02:03.672Z,15.39
2018-01-07T19:04:29.894Z,15.42
2018-01-07T19:06:56.096Z,15.42
2018-01-07T19:09:22.398Z,15.41
2018-01-07T19:11:48.635Z,15.42
2018-01-07T19:14:14.860Z,15.40
2018-01-07T19:16:41.147Z,15.41
2018-01-07T19:19:07.355Z,15.42
2018-01-07T19:21:33.578Z,15.41
2018-01-07T19:23:59.861Z,15.42
2018-01-07T19:26:26.049Z,15.39
2018-01-07T19:28:52.245Z,15.39
2018-01-07T19:31:18.548Z,15.39
2018-01-07T19:33:45.084Z,15.40
2018-01-07T19:36:11.318Z,15.38
2018-01-07T19:38:37.622Z,15.38
2018-01-07T19:41:03.855Z,15.38
2018-01-07T19:43:30.087Z,15.38
2018-01-07T19:45:56.381Z,15.37
2018-01-07T19:48:22.631Z,15.39
2018-01-07T19:50:49.078Z,15.38
2018-01-07T19:53:15.329Z,15.36
2018-01-07T19:55:41.777Z,15.36
2018-01-07T19:58:07.974Z,15.35
2018-01-07T20:00:34.276Z,15.36
2018-01-07T20:03:00.519Z,15.37
2018-01-07T20:05:27.121Z,15.38
2018-01-07T20:07:53.373Z,15.37
2018-01-07T20:10:19.556Z,15.35
2018-01-07T20:12:45.790Z,15.35
2018-01-07T20:15:12.336Z,15.36
2018-01-07T20:17:38.557Z,15.34
2018-01-07T20:20:04.751Z,15.35
2018-01-07T20:22:31.335Z,15.35
2018-01-07T20:24:57.867Z,15.33
2018-01-07T20:27:24.295Z,15.33
2018-01-07T20:29:50.782Z,15.33
2018-01-07T20:32:16.980Z,15.32
2018-01-07T20:34:43.246Z,15.32
2018-01-07T20:37:09.529Z,15.30
2018-01-07T20:39:35.791Z,15.29
2018-01-07T20:42:02.050Z,15.30
2018-01-07T20:44:28.326Z,15.31
2018-01-07T20:46:54.517Z,15.30
2018-01-07T20:49:20.777Z,15.28
2018-01-07T20:51:47.044Z,15.30
2018-01-07T20:54:13.279Z,15.30
2018-01-07T20:56:39.489Z,15.29
2018-01-07T20:59:05.818Z,15.27
2018-01-07T21:01:32.057Z,15.26
2018-01-07T21:03:58.277Z,15.25
2018-01-07T21:06:24.526Z,15.24
2018-01-07T21:08:50.718Z,15.24
2018-01-07T21:11:17.226Z,15.24
2018-01-07T21:13:43.471Z,15.25
2018-01-07T21:16:09.695Z,15.24
2018-01-07T21:18:36.219Z,15.25
2018-01-07T21:21:02.479Z,15.25
2018-01-07T21:23:28.664Z,15.24
2018-01-07T21:25:54.849Z,15.23
2018-01-07T21:28:21.097Z,15.21
2018-01-07T21:30:47.327Z,15.22
2018-01-07T21:33:13.521Z,15.22
2018-01-07T21:35:39.884Z,15.22
2018-01-07T21:38:06.084Z,15.20
2018-01-07T21:40:32.285Z,15.22
2018-01-07T21:42:58.535Z,15.21
2018-01-07T21:45:24.728Z,15.20
2018-01-07T21:47:50.911Z,15.19
2018-01-07T21:50:17.490Z,15.18
2018-01-07T21:52:43.714Z,15.19
2018-01-07T21:55:09.902Z,15.16
2018-01-07T21:57:36.187Z,15.15
2018-01-07T22:00:14.512Z,15.16
2018-01-07T22:02:43.922Z,15.18
2018-01-07T22:05:17.026Z,15.18
2018-01-07T22:07:43.303Z,15.16
2018-01-07T22:10:09.514Z,15.16
2018-01-07T22:12:35.750Z,15.16
2018-01-07T22:15:02.034Z,15.15
2018-01-07T22:17:28.269Z,15.15
2018-01-07T22:19:54.490Z,15.15
2018-01-07T22:22:20.733Z,15.17
2018-01-07T22:24:47.170Z,15.15
2018-01-07T22:27:13.386Z,15.13
2018-01-07T22:29:39.662Z,15.13
2018-01-07T22:32:05.856Z,15.14
2018-01-07T22:34:32.330Z,15.14
2018-01-07T22:36:58.612Z,15.13
2018-01-07T22:39:24.835Z,15.12
2018-01-07T22:41:51.126Z,15.11
2018-01-07T22:44:17.639Z,15.10
2018-01-07T22:46:43.867Z,15.09
2018-01-07T22:49:10.071Z,15.10
2018-01-07T22:51:36.407Z,15.11
2018-01-07T22:54:02.966Z,15.10
2018-01-07T22:56:29.230Z,15.10
2018-01-07T22:58:55.450Z,15.09
2018-01-07T23:01:21.699Z,15.08
2018-01-07T23:03:47.913Z,15.10
2018-01-07T23:06:14.211Z,15.08
2018-01-07T23:08:40.409Z,15.10
2018-01-07T23:11:06.608Z,15.13
2018-01-07T23:13:32.858Z,15.13
2018-01-07T23:15:59.076Z,15.12
2018-01-07T23:18:25.280Z,15.12
2018-01-07T23:20:51.771Z,15.12
2018-01-07T23:23:18.035Z,15.13
2018-01-07T23:25:44.249Z,15.11
2018-01-07T23:28:10.508Z,15.14
2018-01-07T23:30:36.722Z,15.11
2018-01-07T23:33:02.945Z,15.12
2018-01-07T23:35:29.200Z,15.12
2018-01-07T23:37:55.416Z,15.14
2018-01-07T23:40:21.640Z,15.13
2018-01-07T23:42:47.918Z,15.12
2018-01-07T23:45:14.170Z,15.11
2018-01-07T23:47:40.416Z,15.08
2018-01-07T23:50:06.699Z,15.09
2018-01-07T23:52:32.911Z,15.10
2018-01-07T23:54:59.192Z,15.09
2018-01-07T23:57:25.488Z,15.08
2018-01-07T23:59:51.724Z,15.07
